Time;durP1;ratioP1;P1;durP2;ratioP2;P2;SDS_P1;SDS_P2;PMS_P1;PMS_P2;Temp;Humidity;BMP_temperature;BMP_pressure;BME280_temperature;BME280_humidity;BME280_pressure;Samples;Min_cycle;Max_cycle;Signal;HPM_P1;HPM_P2
2023/06/14 00:00:10;;;;;;;2.80;2.20;;;;;;;14.58;93.37;99197.70;107872;1307;22226;-42
2023/06/14 00:02:36;;;;;;;4.80;2.30;;;;;;;14.53;93.45;99193.95;107873;1307;22219;-42
2023/06/14 00:05:02;;;;;;;3.10;2.20;;;;;;;14.53;92.93;99193.62;107868;1307;22386;-42
2023/06/14 00:07:38;;;;;;;5.20;1.90;;;;;;;14.52;92.88;99191.34;107860;1307;22202;-42
2023/06/14 00:10:04;;;;;;;4.30;1.90;;;;;;;14.51;93.41;99197.63;107891;1307;23307;-42
2023/06/14 00:12:30;;;;;;;3.20;2.00;;;;;;;14.48;93.38;99200.67;107899;1307;22222;-42
2023/06/14 00:14:55;;;;;;;2.20;2.00;;;;;;;14.47;92.90;99200.27;107893;1307;22226;-41
2023/06/14 00:17:21;;;;;;;3.20;2.10;;;;;;;14.46;91.35;99196.05;107877;1307;22244;-41
2023/06/14 00:19:47;;;;;;;5.50;2.20;;;;;;;14.43;91.83;99193.60;107902;1307;22287;-41
2023/06/14 00:22:12;;;;;;;2.90;2.40;;;;;;;14.42;91.93;99191.44;107876;1307;22475;-42
2023/06/14 00:24:37;;;;;;;3.00;2.30;;;;;;;14.42;91.16;99192.34;107865;1307;22640;-42
2023/06/14 00:27:03;;;;;;;2.80;2.20;;;;;;;14.40;91.01;99192.95;107867;1307;22267;-42
2023/06/14 00:29:28;;;;;;;4.20;2.10;;;;;;;14.36;91.95;99192.58;107858;1307;22238;-41
2023/06/14 00:31:53;;;;;;;10.60;2.40;;;;;;;14.36;91.43;99192.74;107888;1307;22656;-42
2023/06/14 00:34:18;;;;;;;5.80;2.70;;;;;;;14.36;91.18;99193.46;107864;1307;22222;-41
2023/06/14 00:36:44;;;;;;;4.60;2.30;;;;;;;14.35;90.65;99192.64;107897;1307;22506;-41
2023/06/14 00:39:09;;;;;;;4.00;2.50;;;;;;;14.33;89.96;99187.82;107889;1307;23269;-41
2023/06/14 00:41:35;;;;;;;5.00;2.60;;;;;;;14.26;90.57;99184.14;107870;1307;22465;-41
2023/06/14 00:44:00;;;;;;;3.90;2.60;;;;;;;14.23;90.01;99185.20;107855;1307;22199;-41
2023/06/14 00:46:25;;;;;;;5.60;2.50;;;;;;;14.21;90.58;99185.54;107902;1307;24195;-41
2023/06/14 00:48:51;;;;;;;5.00;2.50;;;;;;;14.15;90.54;99184.94;107871;1307;22197;-40
2023/06/14 00:51:17;;;;;;;3.70;2.40;;;;;;;14.12;90.32;99187.04;107884;1307;22696;-42
2023/06/14 00:53:46;;;;;;;4.00;2.70;;;;;;;14.12;89.83;99188.82;107896;1307;22398;-41
2023/06/14 00:56:13;;;;;;;3.60;2.80;;;;;;;14.12;90.20;99186.73;107903;1307;22221;-41
2023/06/14 00:58:39;;;;;;;5.10;2.70;;;;;;;14.06;89.67;99178.83;107890;1307;22474;-41
2023/06/14 01:01:04;;;;;;;7.00;2.80;;;;;;;14.00;90.36;99179.95;107887;1307;22212;-42
2023/06/14 01:03:31;;;;;;;3.30;2.80;;;;;;;14.01;90.23;99178.67;107900;1307;22257;-42
2023/06/14 01:06:10;;;;;;;4.70;3.10;;;;;;;14.00;90.09;99177.10;107882;1307;23189;-42
2023/06/14 01:08:56;;;;;;;5.30;2.80;;;;;;;13.94;90.69;99182.33;107898;1307;22223;-42
2023/06/14 01:11:31;;;;;;;3.90;3.00;;;;;;;13.91;91.01;99181.29;107907;1307;22823;-42
2023/06/14 01:14:01;;;;;;;6.60;3.30;;;;;;;13.90;90.74;99178.58;107924;1307;22260;-42
2023/06/14 01:16:29;;;;;;;8.00;3.60;;;;;;;13.90;90.04;99179.65;107898;1307;23060;-41
2023/06/14 01:18:56;;;;;;;3.90;2.90;;;;;;;13.87;90.01;99176.67;107899;1307;22302;-42
2023/06/14 01:21:25;;;;;;;3.80;2.80;;;;;;;13.82;90.84;99175.59;107910;1307;22229;-42
2023/06/14 01:23:52;;;;;;;4.70;3.10;;;;;;;13.79;91.20;99177.38;107895;1288;22200;-42
2023/06/14 01:26:21;;;;;;;6.30;3.20;;;;;;;13.76;91.58;99172.64;107686;1307;22412;-41
2023/06/14 01:28:48;;;;;;;7.00;3.10;;;;;;;13.75;91.77;99173.11;107902;1307;22218;-42
2023/06/14 01:31:19;;;;;;;4.60;3.10;;;;;;;13.76;90.85;99173.15;107890;1307;23316;-41
2023/06/14 01:33:45;;;;;;;4.70;3.20;;;;;;;13.74;91.46;99172.62;107900;1307;22276;-41
2023/06/14 01:36:12;;;;;;;7.50;3.20;;;;;;;13.74;91.51;99175.84;107884;1307;22951;-42
2023/06/14 01:38:38;;;;;;;8.50;3.30;;;;;;;13.70;91.94;99173.13;107887;1307;22273;-42
2023/06/14 01:41:04;;;;;;;6.00;3.50;;;;;;;13.65;91.15;99176.06;107887;1307;22216;-42
2023/06/14 01:43:31;;;;;;;5.00;3.20;;;;;;;13.64;91.10;99175.95;107888;1307;22406;-42
2023/06/14 01:45:57;;;;;;;6.80;3.30;;;;;;;13.66;91.21;99177.95;107880;1307;22245;-41
2023/06/14 01:48:23;;;;;;;3.20;2.90;;;;;;;13.69;90.96;99174.77;107903;1307;22233;-42
2023/06/14 01:50:49;;;;;;;4.90;3.40;;;;;;;13.69;90.53;99177.73;107913;1307;22365;-42
2023/06/14 01:53:15;;;;;;;7.90;3.60;;;;;;;13.68;90.82;99182.39;107903;1307;22592;-42
2023/06/14 01:55:43;;;;;;;5.90;3.00;;;;;;;13.67;91.13;99184.04;107908;1307;22382;-42
2023/06/14 01:58:09;;;;;;;5.60;3.50;;;;;;;13.66;91.37;99183.05;107904;1307;23178;-42
2023/06/14 02:00:34;;;;;;;8.30;3.20;;;;;;;13.65;93.31;99182.43;107912;1307;22369;-43
2023/06/14 02:03:00;;;;;;;8.30;3.70;;;;;;;13.66;91.98;99179.20;107929;1307;22229;-41
2023/06/14 02:05:26;;;;;;;4.30;3.70;;;;;;;13.59;91.13;99181.06;107893;1307;22222;-41
2023/06/14 02:07:51;;;;;;;7.40;4.30;;;;;;;13.54;92.06;99177.39;107887;1307;22359;-41
2023/06/14 02:10:17;;;;;;;5.70;4.30;;;;;;;13.54;92.80;99175.83;107908;1307;22236;-41
2023/06/14 02:12:43;;;;;;;7.30;4.30;;;;;;;13.54;93.95;99176.64;107898;1307;22227;-41
2023/06/14 02:15:09;;;;;;;5.90;4.10;;;;;;;13.54;93.41;99174.36;107914;1307;22241;-42
2023/06/14 02:17:35;;;;;;;9.90;4.50;;;;;;;13.51;92.30;99175.66;107906;1307;22214;-41
2023/06/14 02:20:00;;;;;;;9.20;4.40;;;;;;;13.47;92.65;99181.20;107917;1307;22926;-42
2023/06/14 02:22:25;;;;;;;5.30;4.10;;;;;;;13.49;93.22;99174.42;107901;1307;22302;-41
2023/06/14 02:24:51;;;;;;;4.50;4.10;;;;;;;13.48;94.21;99177.25;107911;1307;22236;-42
2023/06/14 02:27:16;;;;;;;6.40;4.40;;;;;;;13.50;93.92;99178.35;107891;1307;22189;-40
2023/06/14 02:29:42;;;;;;;5.10;4.30;;;;;;;13.51;93.95;99175.14;107938;1307;22251;-40
2023/06/14 02:32:07;;;;;;;7.30;4.60;;;;;;;13.48;92.92;99180.80;107860;1307;22433;-40
2023/06/14 02:34:34;;;;;;;6.10;4.90;;;;;;;13.45;93.35;99175.71;107952;1301;22863;-41
2023/06/14 02:36:59;;;;;;;5.00;4.30;;;;;;;13.47;92.98;99178.04;108033;1304;22209;-41
2023/06/14 02:39:24;;;;;;;5.10;4.70;;;;;;;13.47;93.45;99178.92;108026;1306;22246;-40
2023/06/14 02:41:50;;;;;;;7.30;4.90;;;;;;;13.49;92.59;99175.48;108029;1306;22209;-40
2023/06/14 02:44:19;;;;;;;6.50;4.70;;;;;;;13.47;92.76;99174.52;108023;1292;22653;-40
2023/06/14 02:46:45;;;;;;;10.20;4.70;;;;;;;13.47;92.31;99174.36;108035;1306;22321;-40
2023/06/14 02:49:11;;;;;;;6.30;4.60;;;;;;;13.43;93.67;99172.80;108022;1306;22219;-40
2023/06/14 02:51:36;;;;;;;8.90;4.80;;;;;;;13.41;93.18;99174.01;108042;1306;22233;-40
2023/06/14 02:54:02;;;;;;;6.50;4.80;;;;;;;13.38;94.02;99180.25;108031;1306;23043;-40
2023/06/14 02:56:27;;;;;;;12.10;5.30;;;;;;;13.37;94.62;99184.69;107879;1306;174376;-40
2023/06/14 02:58:53;;;;;;;6.90;4.30;;;;;;;13.34;95.37;99183.29;108025;1306;22235;-41
2023/06/14 03:01:19;;;;;;;9.30;5.00;;;;;;;13.33;94.96;99179.48;108013;1306;22491;-40
2023/06/14 03:03:44;;;;;;;6.40;4.70;;;;;;;13.35;95.35;99177.64;108045;1306;22465;-40
2023/06/14 03:06:13;;;;;;;6.20;5.30;;;;;;;13.35;95.69;99169.88;108002;1306;22182;-40
2023/06/14 03:08:39;;;;;;;6.20;5.10;;;;;;;13.36;95.35;99174.36;108058;1306;22234;-41
2023/06/14 03:11:05;;;;;;;8.60;4.70;;;;;;;13.37;94.67;99176.92;108022;1306;22258;-41
2023/06/14 03:13:32;;;;;;;4.90;4.40;;;;;;;13.38;94.10;99173.91;108026;1306;22232;-40
2023/06/14 03:15:57;;;;;;;7.30;5.10;;;;;;;13.40;94.09;99170.55;108030;1306;22967;-41
2023/06/14 03:18:25;;;;;;;6.80;5.10;;;;;;;13.43;94.20;99168.95;108047;1306;22330;-40
2023/06/14 03:20:51;;;;;;;7.60;4.80;;;;;;;13.44;94.49;99176.27;108024;1306;22288;-40
2023/06/14 03:23:17;;;;;;;5.90;4.50;;;;;;;13.46;96.04;99174.78;108015;1306;22769;-41
2023/06/14 03:25:42;;;;;;;8.20;5.00;;;;;;;13.52;95.33;99176.83;108053;1306;23010;-41
2023/06/14 03:28:07;;;;;;;7.60;5.10;;;;;;;13.55;94.09;99175.92;108020;1306;22786;-41
2023/06/14 03:30:33;;;;;;;8.30;5.40;;;;;;;13.56;95.12;99184.99;108024;1306;22215;-41
2023/06/14 03:33:00;;;;;;;7.40;5.10;;;;;;;13.59;94.56;99185.48;108009;1306;23551;-41
2023/06/14 03:35:26;;;;;;;9.20;5.20;;;;;;;13.60;94.80;99183.64;108053;1306;22234;-41
2023/06/14 03:37:51;;;;;;;8.10;5.40;;;;;;;13.64;94.97;99184.77;108051;1306;22280;-41
2023/06/14 03:40:19;;;;;;;6.90;5.40;;;;;;;13.68;94.86;99183.61;108040;1306;22643;-41
2023/06/14 03:42:45;;;;;;;6.60;5.30;;;;;;;13.72;94.44;99185.27;108036;1306;22244;-41
2023/06/14 03:45:10;;;;;;;6.10;4.90;;;;;;;13.77;94.35;99187.92;108035;1306;22157;-41
2023/06/14 03:47:36;;;;;;;6.90;5.50;;;;;;;13.79;93.67;99190.09;108066;1306;22282;-41
2023/06/14 03:50:05;;;;;;;8.50;5.00;;;;;;;13.79;94.10;99191.98;108018;1306;22997;-41
2023/06/14 03:52:31;;;;;;;8.00;5.00;;;;;;;13.83;94.36;99190.66;108035;1306;22243;-41
2023/06/14 03:54:56;;;;;;;6.00;5.00;;;;;;;13.85;94.50;99191.08;108044;1306;22847;-41
2023/06/14 03:57:23;;;;;;;9.60;5.30;;;;;;;13.89;93.43;99187.46;108035;1306;22948;-41
2023/06/14 03:59:48;;;;;;;6.70;5.50;;;;;;;13.90;93.45;99189.82;108032;1306;22229;-41
2023/06/14 04:02:17;;;;;;;7.80;5.30;;;;;;;13.93;93.15;99189.27;108047;1306;22239;-41
2023/06/14 04:04:45;;;;;;;5.80;5.10;;;;;;;13.93;92.52;99191.72;108041;1306;22246;-42
2023/06/14 04:07:11;;;;;;;;;;;;;;;13.96;92.62;99198.92;108027;1306;22464;-41
2023/06/14 04:09:37;;;;;;;8.20;5.10;;;;;;;13.97;93.22;99197.98;108024;1306;22291;-41
2023/06/14 04:12:02;;;;;;;16.10;5.20;;;;;;;13.97;92.44;99196.73;108051;1306;22241;-42
2023/06/14 04:14:27;;;;;;;8.50;4.90;;;;;;;13.99;92.20;99195.55;108021;1295;22288;-42
2023/06/14 04:16:53;;;;;;;6.80;4.80;;;;;;;14.02;91.96;99205.05;108035;1306;22219;-41
2023/06/14 04:19:18;;;;;;;5.40;4.90;;;;;;;14.05;92.15;99205.50;108030;1306;22219;-42
2023/06/14 04:21:43;;;;;;;5.40;4.70;;;;;;;14.05;91.58;99203.27;108051;1306;22456;-40
2023/06/14 04:24:13;;;;;;;8.60;4.80;;;;;;;14.04;91.73;99199.83;108054;1306;22226;-40
2023/06/14 04:26:45;;;;;;;15.60;5.30;;;;;;;14.05;91.27;99199.05;108033;1306;22214;-40
2023/06/14 04:29:14;;;;;;;7.50;5.20;;;;;;;14.06;92.04;99200.52;108046;1306;22366;-40
2023/06/14 04:31:40;;;;;;;11.40;6.50;;;;;;;14.10;92.56;99198.83;108056;1306;22776;-40
2023/06/14 04:34:07;;;;;;;9.20;5.50;;;;;;;14.15;92.68;99196.54;108040;1306;22381;-41
2023/06/14 04:36:34;;;;;;;6.70;5.20;;;;;;;14.21;92.96;99200.51;108048;1306;22379;-41
2023/06/14 04:39:00;;;;;;;;;;;;;;;14.25;93.17;99200.73;108058;1306;22406;-40
2023/06/14 04:41:30;;;;;;;12.90;5.10;;;;;;;14.30;93.11;99204.14;108030;1306;22439;-41
2023/06/14 04:44:01;;;;;;;9.40;5.60;;;;;;;14.33;92.75;99202.11;108027;1306;22206;-41
2023/06/14 04:46:28;;;;;;;6.10;5.20;;;;;;;14.38;92.68;99200.19;108047;1306;22403;-41
2023/06/14 04:48:54;;;;;;;8.90;5.60;;;;;;;14.42;92.91;99193.58;108026;1306;22397;-41
2023/06/14 04:51:22;;;;;;;12.40;5.40;;;;;;;14.46;92.19;99197.16;108006;1306;22272;-41
2023/06/14 04:53:49;;;;;;;10.70;5.50;;;;;;;14.50;91.63;99198.57;108044;1306;22239;-41
2023/06/14 04:56:14;;;;;;;7.10;5.50;;;;;;;14.54;91.64;99204.48;108036;1306;22421;-41
2023/06/14 04:58:40;;;;;;;7.90;5.00;;;;;;;14.59;91.33;99208.55;108027;1306;22251;-41
2023/06/14 05:01:05;;;;;;;11.60;5.50;;;;;;;14.62;90.48;99205.16;108001;1306;22556;-41
2023/06/14 05:03:31;;;;;;;9.40;5.30;;;;;;;14.62;89.99;99205.51;108034;1306;22476;-41
2023/06/14 05:05:56;;;;;;;11.60;5.30;;;;;;;14.64;89.90;99205.36;108031;1306;22369;-41
2023/06/14 05:08:25;;;;;;;7.90;5.10;;;;;;;14.66;90.19;99203.68;108024;1306;23090;-41
2023/06/14 05:10:51;;;;;;;9.60;5.60;;;;;;;14.71;90.06;99200.48;108052;1306;22215;-41
2023/06/14 05:13:17;;;;;;;10.10;5.80;;;;;;;14.72;90.62;99197.00;107700;1306;22222;-41
2023/06/14 05:15:42;;;;;;;12.70;5.60;;;;;;;14.76;90.17;99195.64;108066;1306;22864;-41
2023/06/14 05:18:09;;;;;;;9.00;5.70;;;;;;;14.83;89.70;99193.04;108020;1306;22494;-41
2023/06/14 05:20:36;;;;;;;10.00;5.50;;;;;;;14.91;89.69;99192.08;108018;1306;23056;-41
2023/06/14 05:23:02;;;;;;;7.10;5.70;;;;;;;15.00;89.65;99189.84;108045;1306;22962;-41
2023/06/14 05:25:28;;;;;;;8.90;5.10;;;;;;;15.05;89.58;99190.19;108052;1306;22840;-42
2023/06/14 05:27:53;;;;;;;6.10;4.80;;;;;;;15.07;89.03;99189.48;107984;1306;22895;-42
2023/06/14 05:30:19;;;;;;;8.30;5.40;;;;;;;15.12;88.67;99189.45;107924;1307;22800;-42
2023/06/14 05:32:44;;;;;;;6.60;4.90;;;;;;;15.11;87.71;99192.50;107893;1307;22362;-40
2023/06/14 05:35:10;;;;;;;7.50;5.30;;;;;;;15.11;88.29;99193.80;107923;1307;22900;-40
2023/06/14 05:37:35;;;;;;;7.40;5.50;;;;;;;15.12;87.81;99192.80;107940;1307;22279;-41
2023/06/14 05:40:01;;;;;;;13.10;5.40;;;;;;;15.13;87.49;99192.75;107918;1307;23163;-41
2023/06/14 05:42:26;;;;;;;14.20;5.00;;;;;;;15.13;87.28;99195.20;107919;1307;22246;-41
2023/06/14 05:44:52;;;;;;;12.50;5.30;;;;;;;15.15;87.44;99195.38;107908;1307;22279;-42
2023/06/14 05:47:17;;;;;;;9.50;5.30;;;;;;;15.16;87.14;99197.61;107905;1307;22405;-41
2023/06/14 05:49:42;;;;;;;6.10;5.40;;;;;;;15.19;86.85;99197.05;107913;1307;22247;-41
2023/06/14 05:52:08;;;;;;;14.90;5.50;;;;;;;15.19;87.61;99203.38;107931;1307;23335;-41
2023/06/14 05:54:33;;;;;;;12.90;5.90;;;;;;;15.23;87.87;99204.35;107939;1307;22412;-41
2023/06/14 05:57:03;;;;;;;14.60;5.80;;;;;;;15.25;87.61;99209.44;107924;1307;22223;-41
2023/06/14 05:59:29;;;;;;;7.60;4.90;;;;;;;15.33;87.21;99211.02;107929;1307;22238;-41
2023/06/14 06:01:54;;;;;;;10.80;5.50;;;;;;;15.39;87.39;99213.75;107988;1291;22503;-41
2023/06/14 06:04:20;;;;;;;10.60;5.90;;;;;;;15.44;87.32;99217.23;107987;1292;22434;-41
2023/06/14 06:06:46;;;;;;;13.00;5.70;;;;;;;15.52;86.95;99213.44;108037;1292;23158;-41
2023/06/14 06:09:12;;;;;;;13.30;5.70;;;;;;;15.59;86.72;99215.70;108032;1295;22388;-41
2023/06/14 06:11:37;;;;;;;5.80;4.70;;;;;;;15.66;86.99;99213.89;108027;1301;22385;-42
2023/06/14 06:14:02;;;;;;;9.30;4.70;;;;;;;15.76;86.14;99212.99;107999;1301;22325;-41
2023/06/14 06:16:28;;;;;;;12.80;4.90;;;;;;;15.76;85.49;99214.64;107934;1301;22265;-41
2023/06/14 06:18:53;;;;;;;14.90;5.60;;;;;;;15.75;85.14;99217.55;107903;1304;22556;-41
2023/06/14 06:21:18;;;;;;;9.90;5.20;;;;;;;15.76;84.54;99225.01;107910;1291;22222;-41
2023/06/14 06:23:44;;;;;;;9.10;5.10;;;;;;;15.76;84.74;99225.80;107913;1291;23108;-41
2023/06/14 06:26:09;;;;;;;12.40;5.10;;;;;;;15.77;85.00;99228.33;107932;1291;22297;-41
2023/06/14 06:28:34;;;;;;;10.90;5.10;;;;;;;15.77;84.29;99228.66;107912;1307;22382;-41
2023/06/14 06:31:00;;;;;;;7.30;5.30;;;;;;;15.75;84.35;99228.83;107883;1301;22407;-41
2023/06/14 06:33:25;;;;;;;9.90;5.20;;;;;;;15.80;84.26;99227.58;107904;1300;22950;-42
2023/06/14 06:35:50;;;;;;;9.90;5.30;;;;;;;15.83;84.45;99223.61;107914;1304;22426;-41
2023/06/14 06:38:18;;;;;;;12.90;5.20;;;;;;;15.85;84.07;99221.02;107911;1292;22327;-41
2023/06/14 06:40:43;;;;;;;8.50;5.20;;;;;;;15.81;84.17;99218.46;107922;1301;22211;-41
2023/06/14 06:43:08;;;;;;;8.70;5.00;;;;;;;15.82;83.90;99216.79;107888;1301;22285;-41
2023/06/14 06:45:34;;;;;;;11.30;5.20;;;;;;;15.81;83.56;99215.48;107960;1299;22444;-42
2023/06/14 06:47:59;;;;;;;12.90;5.50;;;;;;;15.80;83.52;99217.64;108015;1297;22968;-42
2023/06/14 06:50:25;;;;;;;9.50;4.60;;;;;;;15.78;83.26;99222.83;108029;1295;22268;-41
2023/06/14 06:52:51;;;;;;;10.70;5.30;;;;;;;15.73;83.05;99226.98;107910;1302;24241;-42
2023/06/14 06:55:16;;;;;;;12.40;5.30;;;;;;;15.69;83.52;99229.05;108027;1292;22479;-42
2023/06/14 06:57:41;;;;;;;18.40;5.90;;;;;;;15.68;83.71;99231.61;108045;1291;22798;-42
2023/06/14 07:00:09;;;;;;;12.20;4.90;;;;;;;15.66;83.37;99237.10;108021;1301;22224;-42
2023/06/14 07:02:34;;;;;;;;;;;;;;;15.62;84.15;99236.52;107827;1299;22437;-42
2023/06/14 07:05:00;;;;;;;7.70;5.10;;;;;;;15.59;84.62;99239.41;108003;1295;22394;-42
2023/06/14 07:07:25;;;;;;;7.70;5.90;;;;;;;15.56;84.95;99241.55;108017;1301;22181;-42
2023/06/14 07:09:51;;;;;;;11.20;6.10;;;;;;;15.58;85.20;99243.18;108018;1299;22926;-42
2023/06/14 07:12:16;;;;;;;14.60;6.00;;;;;;;15.60;87.33;99239.52;108023;1292;22339;-42
2023/06/14 07:14:41;;;;;;;7.70;5.20;;;;;;;15.66;87.24;99237.75;108012;1291;22299;-42
2023/06/14 07:17:06;;;;;;;8.20;5.60;;;;;;;15.70;88.13;99231.67;107998;1301;22318;-42
2023/06/14 07:19:32;;;;;;;9.10;5.50;;;;;;;15.77;87.26;99232.25;107924;1302;23148;-42
2023/06/14 07:21:58;;;;;;;16.80;6.10;;;;;;;15.84;87.14;99231.64;107933;1301;22555;-45
2023/06/14 07:24:23;;;;;;;13.50;4.90;;;;;;;15.99;86.99;99234.41;107947;1299;22358;-42
2023/06/14 07:26:48;;;;;;;8.50;4.90;;;;;;;16.17;86.11;99236.67;108029;1295;22435;-41
2023/06/14 07:29:14;;;;;;;7.20;4.90;;;;;;;16.40;85.74;99237.50;107998;1305;22188;-41
2023/06/14 07:31:40;;;;;;;11.20;5.20;;;;;;;16.60;85.59;99241.04;108045;1299;23170;-41
2023/06/14 07:34:05;;;;;;;9.20;5.60;;;;;;;16.68;84.06;99242.85;108035;1304;22307;-41
2023/06/14 07:36:30;;;;;;;12.80;5.20;;;;;;;16.79;85.42;99243.39;108029;1295;22888;-41
2023/06/14 07:38:55;;;;;;;11.00;4.90;;;;;;;16.88;83.65;99248.55;108035;1299;22425;-41
2023/06/14 07:41:21;;;;;;;10.70;4.70;;;;;;;16.87;83.09;99246.98;108056;1295;22870;-42
2023/06/14 07:43:47;;;;;;;5.70;4.00;;;;;;;16.91;83.63;99247.91;108032;1292;23125;-42
2023/06/14 07:46:12;;;;;;;5.10;4.30;;;;;;;16.96;82.39;99250.73;107553;1300;22403;-42
2023/06/14 07:48:37;;;;;;;8.10;4.40;;;;;;;17.01;81.99;99251.52;108025;1303;22234;-42
2023/06/14 07:51:03;;;;;;;9.90;4.80;;;;;;;17.11;82.61;99253.19;108028;1299;22469;-42
2023/06/14 07:53:30;;;;;;;7.20;4.40;;;;;;;17.28;83.53;99254.08;108062;1305;23034;-42
2023/06/14 07:55:56;;;;;;;9.90;4.50;;;;;;;17.43;83.15;99257.04;108058;1299;22265;-42
2023/06/14 07:58:21;;;;;;;9.20;4.00;;;;;;;17.56;82.34;99256.34;107830;1299;22206;-42
2023/06/14 08:00:47;;;;;;;8.00;4.50;;;;;;;17.56;80.96;99258.08;108039;1301;22220;-42
2023/06/14 08:03:12;;;;;;;6.70;4.20;;;;;;;17.54;80.98;99256.35;108014;1299;23108;-41
2023/06/14 08:05:37;;;;;;;9.90;3.90;;;;;;;17.59;80.68;99255.21;107921;1303;22397;-42
2023/06/14 08:08:03;;;;;;;5.40;3.90;;;;;;;17.68;79.65;99259.20;107891;1307;22216;-42
2023/06/14 08:10:28;;;;;;;8.70;3.90;;;;;;;17.80;79.71;99260.80;107885;1301;22220;-42
2023/06/14 08:12:54;;;;;;;10.00;4.40;;;;;;;17.85;78.66;99262.56;107913;1291;22273;-42
2023/06/14 08:15:20;;;;;;;6.30;3.90;;;;;;;17.98;79.83;99260.19;107902;1298;22220;-41
2023/06/14 08:17:45;;;;;;;8.80;4.70;;;;;;;18.10;78.81;99255.13;107926;1291;22952;-42
2023/06/14 08:20:11;;;;;;;7.90;4.50;;;;;;;18.14;77.18;99251.56;107902;1291;22262;-43
2023/06/14 08:22:37;;;;;;;6.40;4.30;;;;;;;18.16;76.13;99253.88;107920;1284;22982;-42
2023/06/14 08:25:04;;;;;;;5.30;4.00;;;;;;;18.20;76.85;99254.09;107896;1296;22333;-42
2023/06/14 08:27:29;;;;;;;14.20;4.50;;;;;;;18.27;77.17;99251.00;107928;1304;22245;-42
2023/06/14 08:29:55;;;;;;;9.00;4.50;;;;;;;18.35;77.01;99251.44;107888;1291;22485;-40
2023/06/14 08:32:21;;;;;;;10.70;4.20;;;;;;;18.37;74.70;99249.01;107864;1292;22229;-41
2023/06/14 08:34:46;;;;;;;6.40;4.00;;;;;;;18.32;73.62;99247.90;107894;1307;22390;-41
2023/06/14 08:37:12;;;;;;;8.40;4.10;;;;;;;18.28;74.06;99248.40;107880;1304;22264;-41
2023/06/14 08:39:37;;;;;;;13.90;4.90;;;;;;;18.25;74.33;99251.99;107875;1291;22351;-41
2023/06/14 08:42:06;;;;;;;8.10;4.50;;;;;;;18.12;73.14;99248.01;107870;1302;22861;-41
2023/06/14 08:44:32;;;;;;;11.30;4.30;;;;;;;17.83;71.89;99251.35;107914;1304;22301;-41
2023/06/14 08:46:59;;;;;;;6.90;4.10;;;;;;;17.74;72.71;99255.88;107888;1301;22352;-41
2023/06/14 08:49:25;;;;;;;8.30;4.30;;;;;;;17.61;72.92;99255.05;107885;1304;22259;-41
2023/06/14 08:51:57;;;;;;;12.50;4.70;;;;;;;17.54;73.16;99253.61;107937;1300;22251;-40
2023/06/14 08:54:24;;;;;;;7.80;4.10;;;;;;;17.54;73.54;99254.14;107902;1292;22209;-41
2023/06/14 08:56:51;;;;;;;8.10;4.30;;;;;;;17.59;74.24;99253.95;107888;1307;23008;-41
2023/06/14 08:59:17;;;;;;;;;;;;;;;17.65;73.59;99257.02;107963;1300;22416;-41
2023/06/14 09:01:45;;;;;;;14.50;4.80;;;;;;;17.63;73.02;99258.60;107950;1299;22105;-41
2023/06/14 09:04:10;;;;;;;7.80;4.60;;;;;;;17.66;73.88;99257.09;107986;1302;23041;-41
2023/06/14 09:06:36;;;;;;;9.10;4.20;;;;;;;17.67;75.27;99256.66;107915;1301;23160;-42
2023/06/14 09:09:04;;;;;;;9.80;4.10;;;;;;;17.67;74.30;99257.02;107948;1291;22208;-42
2023/06/14 09:11:30;;;;;;;17.80;4.00;;;;;;;17.65;73.80;99259.83;107934;1291;22247;-41
2023/06/14 09:13:56;;;;;;;5.40;4.30;;;;;;;17.62;73.98;99263.58;107988;1300;23244;-41
2023/06/14 09:16:21;;;;;;;7.90;4.70;;;;;;;17.58;73.91;99262.92;108019;1298;23152;-41
2023/06/14 09:18:47;;;;;;;7.60;5.00;;;;;;;17.53;74.52;99265.29;107981;1301;22954;-41
2023/06/14 09:21:15;;;;;;;7.80;5.00;;;;;;;17.49;74.26;99268.83;107927;1306;23222;-41
2023/06/14 09:23:45;;;;;;;9.40;4.90;;;;;;;17.51;74.49;99270.08;108013;1302;22376;-41
2023/06/14 09:26:16;;;;;;;8.10;4.90;;;;;;;17.54;74.32;99268.41;107915;1291;22291;-42
2023/06/14 09:28:46;;;;;;;8.70;4.40;;;;;;;17.60;75.01;99268.06;107953;1288;22406;-41
2023/06/14 09:31:15;;;;;;;27.10;5.60;;;;;;;17.72;74.82;99268.98;107932;1298;22260;-41
2023/06/14 09:33:48;;;;;;;6.70;4.10;;;;;;;17.85;74.35;99269.46;107979;1300;22472;-42
2023/06/14 09:36:32;;;;;;;7.40;4.30;;;;;;;17.98;73.30;99272.14;107925;1292;22256;-41
2023/06/14 09:39:00;;;;;;;7.60;4.10;;;;;;;18.06;72.33;99268.26;107992;1299;22585;-41
2023/06/14 09:41:35;;;;;;;11.80;4.30;;;;;;;18.11;71.75;99263.58;107964;1295;22524;-42
2023/06/14 09:44:02;;;;;;;8.10;3.80;;;;;;;18.11;71.28;99260.17;108019;1301;22239;-42
2023/06/14 09:46:29;;;;;;;5.20;4.10;;;;;;;18.17;71.26;99259.31;107974;1301;22442;-41
2023/06/14 09:48:55;;;;;;;8.70;4.30;;;;;;;18.23;71.11;99260.04;107939;1302;22303;-43
2023/06/14 09:51:23;;;;;;;10.10;3.50;;;;;;;18.29;70.99;99257.90;107951;1291;23600;-42
2023/06/14 09:53:52;;;;;;;13.60;3.70;;;;;;;18.37;70.52;99259.46;107944;1292;22410;-41
2023/06/14 09:56:26;;;;;;;4.80;3.40;;;;;;;18.37;69.73;99258.59;107971;1301;22431;-41
2023/06/14 09:58:54;;;;;;;7.10;3.60;;;;;;;18.42;69.77;99259.27;107987;1301;22682;-43
2023/06/14 10:01:20;;;;;;;4.80;3.70;;;;;;;18.50;69.61;99258.38;107911;1298;22300;-42
2023/06/14 10:03:48;;;;;;;12.30;3.70;;;;;;;18.52;69.11;99257.41;107999;1299;22996;-42
2023/06/14 10:06:13;;;;;;;;;;;;;;;18.52;68.37;99258.19;107915;1296;22421;-43
2023/06/14 10:08:40;;;;;;;6.80;3.50;;;;;;;18.51;67.97;99260.06;107987;1295;22415;-42
2023/06/14 10:11:06;;;;;;;7.40;3.60;;;;;;;18.47;67.82;99256.55;107972;1288;22429;-42
2023/06/14 10:13:35;;;;;;;9.10;3.60;;;;;;;18.47;68.29;99257.02;107759;1298;22407;-43
2023/06/14 10:16:20;;;;;;;5.00;3.60;;;;;;;18.44;68.56;99257.64;107905;1288;22402;-42
2023/06/14 10:18:57;;;;;;;8.20;3.30;;;;;;;18.42;68.32;99258.14;107996;1301;22269;-42
2023/06/14 10:21:43;;;;;;;8.00;3.50;;;;;;;18.45;68.69;99257.91;107924;1301;22242;-42
2023/06/14 10:24:12;;;;;;;7.90;3.40;;;;;;;18.52;68.47;99259.95;107905;1292;22229;-43
2023/06/14 10:26:54;;;;;;;8.20;3.90;;;;;;;18.58;68.42;99257.50;107768;1297;22368;-43
2023/06/14 10:29:19;;;;;;;11.50;3.50;;;;;;;18.60;68.72;99255.99;107981;1304;22421;-43
2023/06/14 10:31:47;;;;;;;9.20;3.80;;;;;;;18.63;68.64;99251.65;107948;1304;22258;-43
2023/06/14 10:34:23;;;;;;;5.40;3.50;;;;;;;18.68;69.13;99251.74;107907;1306;22265;-43
2023/06/14 10:37:01;;;;;;;3.50;3.20;;;;;;;18.74;68.65;99250.83;107884;1288;23081;-43
2023/06/14 10:39:26;;;;;;;6.90;3.90;;;;;;;18.72;67.67;99250.33;107957;1303;22362;-42
2023/06/14 10:41:53;;;;;;;7.70;3.20;;;;;;;18.67;68.01;99249.33;107932;1303;22269;-42
2023/06/14 10:44:21;;;;;;;10.70;4.30;;;;;;;18.70;68.40;99241.63;107970;1295;22351;-42
2023/06/14 10:46:52;;;;;;;5.60;3.50;;;;;;;18.75;68.21;99244.08;107891;1288;22288;-46
2023/06/14 10:49:42;;;;;;;10.20;3.80;;;;;;;18.83;68.18;99238.79;107957;1301;22495;-43
2023/06/14 10:52:19;;;;;;;8.00;4.20;;;;;;;18.79;67.91;99235.98;107915;1301;22257;-41
2023/06/14 10:55:06;;;;;;;5.40;3.60;;;;;;;18.83;68.39;99240.14;108031;1301;23257;-41
2023/06/14 10:57:58;;;;;;;4.90;3.20;;;;;;;18.90;68.04;99239.56;107931;1301;22231;-45
2023/06/14 11:00:26;;;;;;;5.40;4.20;;;;;;;18.84;66.75;99238.30;107937;1285;22929;-42
2023/06/14 11:03:07;;;;;;;7.10;4.60;;;;;;;18.84;66.90;99236.36;107936;1306;22992;-44
2023/06/14 11:05:49;;;;;;;9.90;4.20;;;;;;;18.89;67.04;99230.91;107938;1301;22304;-46
2023/06/14 11:08:38;;;;;;;5.80;4.10;;;;;;;18.86;66.82;99229.66;107896;1298;22236;-42
2023/06/14 11:11:08;;;;;;;7.80;4.10;;;;;;;18.80;67.47;99224.96;107887;1302;22352;-42
2023/06/14 11:13:37;;;;;;;12.80;4.10;;;;;;;18.71;66.96;99223.63;107751;1294;22882;-42
2023/06/14 11:16:10;;;;;;;10.80;4.00;;;;;;;18.68;67.62;99224.22;107959;1292;22377;-42
2023/06/14 11:18:36;;;;;;;7.90;3.90;;;;;;;18.68;67.41;99221.59;107877;1306;22227;-42
2023/06/14 11:21:01;;;;;;;8.90;4.20;;;;;;;18.68;67.50;99225.14;107910;1301;22256;-41
2023/06/14 11:23:26;;;;;;;12.10;3.70;;;;;;;18.68;67.40;99225.69;107954;1301;22317;-42